sensor_id;sensor_type;location;lat;lon;timestamp;pressure;altitude;pressure_sealevel;temperature;humidity
57628;BME280;43451;49.060;10.616;2022-12-18T00:01:04;97912.00;;;-14.22;100.00
57628;BME280;43451;49.060;10.616;2022-12-18T00:03:35;97907.72;;;-13.97;100.00
57628;BME280;43451;49.060;10.616;2022-12-18T00:06:01;97914.53;;;-13.96;97.02
57628;BME280;43451;49.060;10.616;2022-12-18T00:08:26;97906.91;;;-13.97;95.84
57628;BME280;43451;49.060;10.616;2022-12-18T00:10:52;97915.72;;;-13.98;95.15
57628;BME280;43451;49.060;10.616;2022-12-18T00:13:17;97914.13;;;-13.99;93.78
57628;BME280;43451;49.060;10.616;2022-12-18T00:15:42;97909.72;;;-14.06;94.14
57628;BME280;43451;49.060;10.616;2022-12-18T00:18:08;97912.19;;;-14.31;96.06
57628;BME280;43451;49.060;10.616;2022-12-18T00:20:38;97925.88;;;-14.75;100.00
57628;BME280;43451;49.060;10.616;2022-12-18T00:23:04;97923.06;;;-14.87;100.00
57628;BME280;43451;49.060;10.616;2022-12-18T00:25:33;97923.88;;;-14.80;100.00
57628;BME280;43451;49.060;10.616;2022-12-18T00:27:58;97923.84;;;-14.20;100.00
57628;BME280;43451;49.060;10.616;2022-12-18T00:30:24;97924.00;;;-14.01;100.00
57628;BME280;43451;49.060;10.616;2022-12-18T00:32:49;97931.38;;;-13.85;100.00
57628;BME280;43451;49.060;10.616;2022-12-18T00:35:15;97924.13;;;-13.76;100.00
57628;BME280;43451;49.060;10.616;2022-12-18T00:37:40;97930.13;;;-13.69;100.00
57628;BME280;43451;49.060;10.616;2022-12-18T00:40:06;97936.53;;;-13.65;100.00
57628;BME280;43451;49.060;10.616;2022-12-18T00:42:32;97930.72;;;-13.67;100.00
57628;BME280;43451;49.060;10.616;2022-12-18T00:45:16;97927.91;;;-13.66;100.00
57628;BME280;43451;49.060;10.616;2022-12-18T00:47:41;97930.31;;;-13.71;100.00
57628;BME280;43451;49.060;10.616;2022-12-18T00:50:08;97935.78;;;-13.72;100.00
57628;BME280;43451;49.060;10.616;2022-12-18T00:52:34;97924.13;;;-13.70;100.00
57628;BME280;43451;49.060;10.616;2022-12-18T00:54:59;97923.69;;;-13.67;100.00
57628;BME280;43451;49.060;10.616;2022-12-18T00:57:25;97934.50;;;-13.57;100.00
57628;BME280;43451;49.060;10.616;2022-12-18T00:59:50;97943.13;;;-13.49;100.00
57628;BME280;43451;49.060;10.616;2022-12-18T01:02:15;97938.59;;;-13.29;100.00
57628;BME280;43451;49.060;10.616;2022-12-18T01:04:41;97942.41;;;-13.25;100.00
57628;BME280;43451;49.060;10.616;2022-12-18T01:07:06;97945.34;;;-13.15;100.00
57628;BME280;43451;49.060;10.616;2022-12-18T01:09:32;97951.94;;;-13.05;100.00
57628;BME280;43451;49.060;10.616;2022-12-18T01:11:57;97953.72;;;-12.99;100.00
57628;BME280;43451;49.060;10.616;2022-12-18T01:14:22;97955.91;;;-12.96;100.00
57628;BME280;43451;49.060;10.616;2022-12-18T01:16:48;97957.47;;;-12.89;100.00
57628;BME280;43451;49.060;10.616;2022-12-18T01:19:13;97957.84;;;-12.85;100.00
57628;BME280;43451;49.060;10.616;2022-12-18T01:21:39;97958.16;;;-12.75;100.00
57628;BME280;43451;49.060;10.616;2022-12-18T01:24:05;97960.22;;;-12.77;100.00
57628;BME280;43451;49.060;10.616;2022-12-18T01:26:31;97957.75;;;-12.72;100.00
57628;BME280;43451;49.060;10.616;2022-12-18T01:28:57;97962.56;;;-12.69;100.00
57628;BME280;43451;49.060;10.616;2022-12-18T01:31:25;97956.72;;;-12.64;100.00
57628;BME280;43451;49.060;10.616;2022-12-18T01:33:52;97959.91;;;-12.37;100.00
57628;BME280;43451;49.060;10.616;2022-12-18T01:36:29;97962.97;;;-12.40;100.00
57628;BME280;43451;49.060;10.616;2022-12-18T01:38:55;97982.06;;;-12.33;100.00
57628;BME280;43451;49.060;10.616;2022-12-18T01:41:27;97977.13;;;-12.23;100.00
57628;BME280;43451;49.060;10.616;2022-12-18T01:44:53;97981.22;;;-12.27;100.00
57628;BME280;43451;49.060;10.616;2022-12-18T01:47:33;97957.34;;;-12.19;100.00
57628;BME280;43451;49.060;10.616;2022-12-18T01:50:04;97960.50;;;-12.10;100.00
57628;BME280;43451;49.060;10.616;2022-12-18T01:52:32;97954.78;;;-12.00;100.00
57628;BME280;43451;49.060;10.616;2022-12-18T01:54:59;97955.78;;;-11.83;100.00
57628;BME280;43451;49.060;10.616;2022-12-18T01:57:27;97961.63;;;-11.62;100.00
57628;BME280;43451;49.060;10.616;2022-12-18T01:59:56;97963.97;;;-11.54;100.00
57628;BME280;43451;49.060;10.616;2022-12-18T02:02:26;97964.63;;;-11.40;100.00
57628;BME280;43451;49.060;10.616;2022-12-18T02:04:52;97965.47;;;-11.28;100.00
57628;BME280;43451;49.060;10.616;2022-12-18T02:10:20;97976.69;;;-11.39;100.00
57628;BME280;43451;49.060;10.616;2022-12-18T02:18:19;97984.63;;;-11.28;100.00
57628;BME280;43451;49.060;10.616;2022-12-18T02:21:11;97980.81;;;-11.13;100.00
57628;BME280;43451;49.060;10.616;2022-12-18T02:23:52;97982.72;;;-11.02;100.00
57628;BME280;43451;49.060;10.616;2022-12-18T02:29:16;97978.59;;;-10.98;100.00
57628;BME280;43451;49.060;10.616;2022-12-18T02:31:46;97986.19;;;-10.90;100.00
57628;BME280;43451;49.060;10.616;2022-12-18T02:34:13;97969.56;;;-10.84;100.00
57628;BME280;43451;49.060;10.616;2022-12-18T02:36:41;97979.38;;;-10.79;100.00
57628;BME280;43451;49.060;10.616;2022-12-18T02:39:10;97972.19;;;-10.72;100.00
57628;BME280;43451;49.060;10.616;2022-12-18T02:41:37;97971.78;;;-10.57;100.00
57628;BME280;43451;49.060;10.616;2022-12-18T02:44:09;97979.13;;;-10.47;100.00
57628;BME280;43451;49.060;10.616;2022-12-18T02:46:41;97979.56;;;-10.50;100.00
57628;BME280;43451;49.060;10.616;2022-12-18T02:49:41;97991.81;;;-10.44;100.00
57628;BME280;43451;49.060;10.616;2022-12-18T02:57:49;97993.69;;;-9.98;100.00
57628;BME280;43451;49.060;10.616;2022-12-18T03:00:21;97985.00;;;-9.87;100.00
57628;BME280;43451;49.060;10.616;2022-12-18T03:03:02;97992.31;;;-9.89;100.00
57628;BME280;43451;49.060;10.616;2022-12-18T03:05:58;97993.22;;;-9.95;100.00
57628;BME280;43451;49.060;10.616;2022-12-18T03:08:28;97981.94;;;-9.95;100.00
57628;BME280;43451;49.060;10.616;2022-12-18T03:11:06;97978.84;;;-9.92;100.00
57628;BME280;43451;49.060;10.616;2022-12-18T03:13:48;97986.47;;;-9.91;100.00
57628;BME280;43451;49.060;10.616;2022-12-18T03:16:23;97977.22;;;-9.82;100.00
57628;BME280;43451;49.060;10.616;2022-12-18T03:18:53;97986.72;;;-9.81;100.00
57628;BME280;43451;49.060;10.616;2022-12-18T03:21:32;97998.03;;;-9.80;100.00
57628;BME280;43451;49.060;10.616;2022-12-18T03:24:00;97989.91;;;-9.78;100.00
57628;BME280;43451;49.060;10.616;2022-12-18T03:26:26;97988.88;;;-9.77;100.00
57628;BME280;43451;49.060;10.616;2022-12-18T03:28:57;98002.16;;;-9.72;100.00
57628;BME280;43451;49.060;10.616;2022-12-18T03:31:26;98010.84;;;-9.60;100.00
57628;BME280;43451;49.060;10.616;2022-12-18T03:33:54;97992.88;;;-9.51;100.00
57628;BME280;43451;49.060;10.616;2022-12-18T03:36:19;97993.69;;;-9.51;100.00
57628;BME280;43451;49.060;10.616;2022-12-18T03:38:45;97973.91;;;-9.53;100.00
57628;BME280;43451;49.060;10.616;2022-12-18T03:41:25;97983.38;;;-9.52;100.00
57628;BME280;43451;49.060;10.616;2022-12-18T03:47:07;97976.16;;;-9.45;100.00
57628;BME280;43451;49.060;10.616;2022-12-18T03:54:48;97989.44;;;-9.40;100.00
57628;BME280;43451;49.060;10.616;2022-12-18T03:57:19;97995.50;;;-9.40;100.00
57628;BME280;43451;49.060;10.616;2022-12-18T03:59:48;97990.34;;;-9.35;100.00
57628;BME280;43451;49.060;10.616;2022-12-18T04:02:16;97992.38;;;-9.25;100.00
57628;BME280;43451;49.060;10.616;2022-12-18T04:04:43;97986.88;;;-9.23;100.00
57628;BME280;43451;49.060;10.616;2022-12-18T04:07:10;97987.19;;;-9.08;100.00
57628;BME280;43451;49.060;10.616;2022-12-18T04:09:39;97979.88;;;-9.06;100.00
57628;BME280;43451;49.060;10.616;2022-12-18T04:12:06;97979.41;;;-9.03;100.00
57628;BME280;43451;49.060;10.616;2022-12-18T04:14:31;97980.78;;;-9.12;100.00
57628;BME280;43451;49.060;10.616;2022-12-18T04:17:01;97980.88;;;-9.07;100.00
57628;BME280;43451;49.060;10.616;2022-12-18T04:19:26;97989.59;;;-9.06;100.00
57628;BME280;43451;49.060;10.616;2022-12-18T04:21:52;97996.13;;;-9.09;100.00
57628;BME280;43451;49.060;10.616;2022-12-18T04:24:17;97997.16;;;-9.10;100.00
57628;BME280;43451;49.060;10.616;2022-12-18T04:26:43;97997.25;;;-9.05;100.00
57628;BME280;43451;49.060;10.616;2022-12-18T04:29:08;98008.09;;;-9.01;100.00
57628;BME280;43451;49.060;10.616;2022-12-18T04:31:34;98017.22;;;-8.92;100.00
57628;BME280;43451;49.060;10.616;2022-12-18T04:33:59;98019.66;;;-8.91;100.00
57628;BME280;43451;49.060;10.616;2022-12-18T04:36:25;98019.41;;;-8.89;100.00
57628;BME280;43451;49.060;10.616;2022-12-18T04:38:50;98015.78;;;-9.00;100.00
57628;BME280;43451;49.060;10.616;2022-12-18T04:41:15;98019.97;;;-8.87;100.00
57628;BME280;43451;49.060;10.616;2022-12-18T04:43:41;98014.06;;;-8.94;100.00
57628;BME280;43451;49.060;10.616;2022-12-18T04:46:07;98012.91;;;-8.98;100.00
57628;BME280;43451;49.060;10.616;2022-12-18T04:48:34;98024.22;;;-8.98;100.00
57628;BME280;43451;49.060;10.616;2022-12-18T04:51:00;98037.50;;;-8.93;100.00
57628;BME280;43451;49.060;10.616;2022-12-18T04:53:25;98031.16;;;-8.80;100.00
57628;BME280;43451;49.060;10.616;2022-12-18T04:55:51;98024.91;;;-8.91;100.00
57628;BME280;43451;49.060;10.616;2022-12-18T04:58:26;98021.59;;;-8.98;100.00
57628;BME280;43451;49.060;10.616;2022-12-18T05:00:52;98009.59;;;-8.94;100.00
57628;BME280;43451;49.060;10.616;2022-12-18T05:03:17;98008.69;;;-8.99;100.00
57628;BME280;43451;49.060;10.616;2022-12-18T05:05:42;98005.25;;;-9.00;100.00
57628;BME280;43451;49.060;10.616;2022-12-18T05:08:08;98006.84;;;-8.99;100.00
57628;BME280;43451;49.060;10.616;2022-12-18T05:10:33;98001.13;;;-8.96;100.00
57628;BME280;43451;49.060;10.616;2022-12-18T05:12:59;98011.63;;;-8.96;100.00
57628;BME280;43451;49.060;10.616;2022-12-18T05:15:30;98013.22;;;-8.95;100.00
57628;BME280;43451;49.060;10.616;2022-12-18T05:17:57;98010.13;;;-8.92;100.00
57628;BME280;43451;49.060;10.616;2022-12-18T05:20:23;98016.63;;;-8.82;100.00
57628;BME280;43451;49.060;10.616;2022-12-18T05:22:49;98027.63;;;-8.85;100.00
57628;BME280;43451;49.060;10.616;2022-12-18T05:25:14;98024.81;;;-8.67;100.00
57628;BME280;43451;49.060;10.616;2022-12-18T05:27:40;98023.59;;;-8.76;100.00
57628;BME280;43451;49.060;10.616;2022-12-18T05:30:06;98029.97;;;-8.72;100.00
57628;BME280;43451;49.060;10.616;2022-12-18T05:32:31;98020.59;;;-8.68;100.00
57628;BME280;43451;49.060;10.616;2022-12-18T05:34:57;98016.34;;;-8.69;100.00
57628;BME280;43451;49.060;10.616;2022-12-18T05:37:22;98022.19;;;-8.67;100.00
57628;BME280;43451;49.060;10.616;2022-12-18T05:39:48;98016.09;;;-8.56;100.00
57628;BME280;43451;49.060;10.616;2022-12-18T05:42:13;98005.09;;;-8.53;100.00
57628;BME280;43451;49.060;10.616;2022-12-18T05:44:39;98013.06;;;-8.48;100.00
57628;BME280;43451;49.060;10.616;2022-12-18T05:47:04;98011.00;;;-8.46;100.00
57628;BME280;43451;49.060;10.616;2022-12-18T05:49:30;98011.78;;;-8.28;100.00
57628;BME280;43451;49.060;10.616;2022-12-18T05:51:55;98005.41;;;-8.15;100.00
57628;BME280;43451;49.060;10.616;2022-12-18T05:54:21;98003.97;;;-8.06;100.00
57628;BME280;43451;49.060;10.616;2022-12-18T05:56:47;97998.38;;;-8.10;100.00
57628;BME280;43451;49.060;10.616;2022-12-18T05:59:12;98002.97;;;-8.05;100.00
57628;BME280;43451;49.060;10.616;2022-12-18T06:01:38;98010.44;;;-7.97;100.00
57628;BME280;43451;49.060;10.616;2022-12-18T06:04:03;98003.91;;;-7.95;100.00
57628;BME280;43451;49.060;10.616;2022-12-18T06:06:29;98005.59;;;-7.88;100.00
57628;BME280;43451;49.060;10.616;2022-12-18T06:08:55;98018.91;;;-7.78;100.00
57628;BME280;43451;49.060;10.616;2022-12-18T06:11:23;98025.00;;;-7.78;100.00
57628;BME280;43451;49.060;10.616;2022-12-18T06:13:55;98025.72;;;-7.82;100.00
57628;BME280;43451;49.060;10.616;2022-12-18T06:16:21;98021.69;;;-7.68;100.00
57628;BME280;43451;49.060;10.616;2022-12-18T06:18:46;98031.22;;;-7.67;100.00
57628;BME280;43451;49.060;10.616;2022-12-18T06:21:12;98029.69;;;-7.63;100.00
57628;BME280;43451;49.060;10.616;2022-12-18T06:23:37;98022.84;;;-7.64;100.00
57628;BME280;43451;49.060;10.616;2022-12-18T06:26:07;98034.97;;;-7.63;100.00
57628;BME280;43451;49.060;10.616;2022-12-18T06:28:32;98036.56;;;-7.62;100.00
57628;BME280;43451;49.060;10.616;2022-12-18T06:30:58;98032.56;;;-7.48;100.00
57628;BME280;43451;49.060;10.616;2022-12-18T06:33:26;98045.28;;;-7.44;100.00
57628;BME280;43451;49.060;10.616;2022-12-18T06:35:53;98039.91;;;-7.50;100.00
57628;BME280;43451;49.060;10.616;2022-12-18T06:38:18;98043.88;;;-7.30;100.00
57628;BME280;43451;49.060;10.616;2022-12-18T06:40:44;98046.81;;;-7.10;100.00
57628;BME280;43451;49.060;10.616;2022-12-18T06:43:09;98040.41;;;-7.14;100.00
57628;BME280;43451;49.060;10.616;2022-12-18T06:45:34;98054.09;;;-7.17;100.00
57628;BME280;43451;49.060;10.616;2022-12-18T06:48:00;98047.84;;;-7.11;100.00
57628;BME280;43451;49.060;10.616;2022-12-18T06:50:25;98033.53;;;-7.15;100.00
57628;BME280;43451;49.060;10.616;2022-12-18T06:52:51;98038.88;;;-7.10;100.00
57628;BME280;43451;49.060;10.616;2022-12-18T06:55:16;98039.72;;;-7.04;100.00
57628;BME280;43451;49.060;10.616;2022-12-18T06:57:41;98042.38;;;-7.04;100.00
57628;BME280;43451;49.060;10.616;2022-12-18T07:00:07;98040.00;;;-7.06;100.00
57628;BME280;43451;49.060;10.616;2022-12-18T07:02:33;98038.03;;;-6.93;100.00
57628;BME280;43451;49.060;10.616;2022-12-18T07:04:59;98041.22;;;-6.91;100.00
57628;BME280;43451;49.060;10.616;2022-12-18T07:07:24;98038.53;;;-6.96;100.00
57628;BME280;43451;49.060;10.616;2022-12-18T07:09:50;98040.91;;;-6.95;100.00
57628;BME280;43451;49.060;10.616;2022-12-18T07:12:16;98048.66;;;-6.88;100.00
57628;BME280;43451;49.060;10.616;2022-12-18T07:14:42;98037.59;;;-6.85;100.00
57628;BME280;43451;49.060;10.616;2022-12-18T07:17:07;98050.78;;;-6.85;100.00
57628;BME280;43451;49.060;10.616;2022-12-18T07:19:33;98044.97;;;-6.87;100.00
57628;BME280;43451;49.060;10.616;2022-12-18T07:21:59;98046.16;;;-6.78;100.00
57628;BME280;43451;49.060;10.616;2022-12-18T07:24:24;98048.59;;;-6.71;100.00
57628;BME280;43451;49.060;10.616;2022-12-18T07:26:49;98063.03;;;-6.79;100.00
57628;BME280;43451;49.060;10.616;2022-12-18T07:29:15;98060.16;;;-6.78;100.00
57628;BME280;43451;49.060;10.616;2022-12-18T07:31:40;98059.41;;;-6.73;100.00
57628;BME280;43451;49.060;10.616;2022-12-18T07:34:10;98052.03;;;-6.71;100.00
57628;BME280;43451;49.060;10.616;2022-12-18T07:36:35;98059.69;;;-6.69;100.00
57628;BME280;43451;49.060;10.616;2022-12-18T07:39:01;98062.22;;;-6.58;100.00
57628;BME280;43451;49.060;10.616;2022-12-18T07:41:26;98069.66;;;-6.55;100.00
57628;BME280;43451;49.060;10.616;2022-12-18T07:43:51;98063.94;;;-6.46;100.00
57628;BME280;43451;49.060;10.616;2022-12-18T07:46:17;98067.25;;;-6.34;100.00
57628;BME280;43451;49.060;10.616;2022-12-18T07:48:43;98072.34;;;-6.27;100.00
57628;BME280;43451;49.060;10.616;2022-12-18T07:51:09;98075.22;;;-6.29;100.00
57628;BME280;43451;49.060;10.616;2022-12-18T07:53:35;98082.09;;;-6.28;100.00
57628;BME280;43451;49.060;10.616;2022-12-18T07:56:03;98085.00;;;-6.29;100.00
57628;BME280;43451;49.060;10.616;2022-12-18T07:58:30;98090.03;;;-6.28;100.00
57628;BME280;43451;49.060;10.616;2022-12-18T08:01:06;98089.81;;;-6.26;100.00
57628;BME280;43451;49.060;10.616;2022-12-18T08:03:32;98096.59;;;-6.09;100.00
57628;BME280;43451;49.060;10.616;2022-12-18T08:06:02;98097.00;;;-5.95;100.00
57628;BME280;43451;49.060;10.616;2022-12-18T08:08:28;98100.00;;;-5.81;100.00
57628;BME280;43451;49.060;10.616;2022-12-18T08:10:54;98094.59;;;-5.91;100.00
57628;BME280;43451;49.060;10.616;2022-12-18T08:13:20;98099.38;;;-5.93;100.00
57628;BME280;43451;49.060;10.616;2022-12-18T08:15:46;98093.09;;;-5.82;100.00
57628;BME280;43451;49.060;10.616;2022-12-18T08:18:11;98095.03;;;-5.72;100.00
57628;BME280;43451;49.060;10.616;2022-12-18T08:20:37;98093.88;;;-5.87;100.00
57628;BME280;43451;49.060;10.616;2022-12-18T08:23:02;98092.41;;;-5.72;100.00
57628;BME280;43451;49.060;10.616;2022-12-18T08:25:27;98084.47;;;-5.72;100.00
57628;BME280;43451;49.060;10.616;2022-12-18T08:27:53;98089.63;;;-5.55;100.00
57628;BME280;43451;49.060;10.616;2022-12-18T08:30:18;98077.44;;;-5.56;100.00
57628;BME280;43451;49.060;10.616;2022-12-18T08:32:44;98083.88;;;-5.47;100.00
57628;BME280;43451;49.060;10.616;2022-12-18T08:35:09;98083.53;;;-5.56;100.00
57628;BME280;43451;49.060;10.616;2022-12-18T08:37:36;98080.44;;;-5.43;100.00
57628;BME280;43451;49.060;10.616;2022-12-18T08:40:02;98077.06;;;-5.38;100.00
57628;BME280;43451;49.060;10.616;2022-12-18T08:42:27;98068.63;;;-5.30;100.00
57628;BME280;43451;49.060;10.616;2022-12-18T08:45:11;98073.06;;;-5.41;100.00
57628;BME280;43451;49.060;10.616;2022-12-18T08:47:37;98071.75;;;-5.38;100.00
57628;BME280;43451;49.060;10.616;2022-12-18T08:50:02;98077.06;;;-5.33;100.00
57628;BME280;43451;49.060;10.616;2022-12-18T08:52:28;98087.16;;;-5.30;100.00
57628;BME280;43451;49.060;10.616;2022-12-18T08:54:53;98093.63;;;-5.16;100.00
57628;BME280;43451;49.060;10.616;2022-12-18T08:57:19;98076.16;;;-5.11;100.00
57628;BME280;43451;49.060;10.616;2022-12-18T08:59:45;98072.72;;;-5.12;100.00
57628;BME280;43451;49.060;10.616;2022-12-18T09:02:11;98065.66;;;-4.96;100.00
57628;BME280;43451;49.060;10.616;2022-12-18T09:04:37;98069.88;;;-5.00;100.00
57628;BME280;43451;49.060;10.616;2022-12-18T09:07:02;98074.19;;;-4.84;100.00
57628;BME280;43451;49.060;10.616;2022-12-18T09:09:27;98072.34;;;-4.83;100.00
57628;BME280;43451;49.060;10.616;2022-12-18T09:11:53;98073.63;;;-4.86;100.00
57628;BME280;43451;49.060;10.616;2022-12-18T09:14:21;98076.88;;;-4.79;100.00
57628;BME280;43451;49.060;10.616;2022-12-18T09:16:46;98073.16;;;-4.73;100.00
57628;BME280;43451;49.060;10.616;2022-12-18T09:19:13;98072.13;;;-4.67;100.00
57628;BME280;43451;49.060;10.616;2022-12-18T09:21:39;98076.44;;;-4.55;100.00
57628;BME280;43451;49.060;10.616;2022-12-18T09:24:05;98073.81;;;-4.50;100.00
57628;BME280;43451;49.060;10.616;2022-12-18T09:26:31;98067.41;;;-4.54;100.00
57628;BME280;43451;49.060;10.616;2022-12-18T09:28:56;98068.50;;;-4.45;100.00
57628;BME280;43451;49.060;10.616;2022-12-18T09:31:23;98064.03;;;-4.39;100.00
57628;BME280;43451;49.060;10.616;2022-12-18T09:33:49;98057.94;;;-4.40;100.00
57628;BME280;43451;49.060;10.616;2022-12-18T09:36:16;98052.63;;;-4.35;100.00
57628;BME280;43451;49.060;10.616;2022-12-18T09:38:43;98060.03;;;-4.42;100.00
57628;BME280;43451;49.060;10.616;2022-12-18T09:43:50;98056.03;;;-4.45;100.00
57628;BME280;43451;49.060;10.616;2022-12-18T09:46:26;98055.81;;;-4.33;100.00
57628;BME280;43451;49.060;10.616;2022-12-18T09:48:56;98060.31;;;-4.28;100.00
57628;BME280;43451;49.060;10.616;2022-12-18T09:51:31;98052.66;;;-4.25;100.00
57628;BME280;43451;49.060;10.616;2022-12-18T09:54:03;98054.28;;;-4.18;100.00
57628;BME280;43451;49.060;10.616;2022-12-18T09:56:35;98051.59;;;-4.24;100.00
57628;BME280;43451;49.060;10.616;2022-12-18T09:59:03;98045.50;;;-4.14;100.00
57628;BME280;43451;49.060;10.616;2022-12-18T10:01:31;98033.06;;;-4.08;100.00
57628;BME280;43451;49.060;10.616;2022-12-18T10:03:57;98033.84;;;-4.08;100.00
57628;BME280;43451;49.060;10.616;2022-12-18T10:12:10;98026.69;;;-3.82;100.00
57628;BME280;43451;49.060;10.616;2022-12-18T10:17:45;98029.09;;;-3.75;100.00
57628;BME280;43451;49.060;10.616;2022-12-18T10:22:53;98046.88;;;-3.76;100.00
57628;BME280;43451;49.060;10.616;2022-12-18T10:25:34;98047.41;;;-3.68;100.00
57628;BME280;43451;49.060;10.616;2022-12-18T10:28:13;98052.19;;;-3.50;100.00
57628;BME280;43451;49.060;10.616;2022-12-18T10:30:40;98053.78;;;-3.39;100.00
57628;BME280;43451;49.060;10.616;2022-12-18T10:33:11;98060.94;;;-3.44;100.00
57628;BME280;43451;49.060;10.616;2022-12-18T10:35:41;98068.09;;;-3.40;100.00
57628;BME280;43451;49.060;10.616;2022-12-18T10:40:48;98065.44;;;-3.24;100.00
57628;BME280;43451;49.060;10.616;2022-12-18T10:43:16;98068.09;;;-3.24;100.00
57628;BME280;43451;49.060;10.616;2022-12-18T10:46:05;98076.09;;;-3.30;100.00
57628;BME280;43451;49.060;10.616;2022-12-18T10:51:02;98065.88;;;-2.92;99.55
57628;BME280;43451;49.060;10.616;2022-12-18T10:53:30;98063.97;;;-2.76;98.49
57628;BME280;43451;49.060;10.616;2022-12-18T10:55:58;98057.88;;;-2.76;97.70
57628;BME280;43451;49.060;10.616;2022-12-18T10:58:31;98050.50;;;-2.95;97.48
57628;BME280;43451;49.060;10.616;2022-12-18T11:01:14;98048.84;;;-2.81;98.03
57628;BME280;43451;49.060;10.616;2022-12-18T11:04:00;98033.44;;;-2.89;98.59
57628;BME280;43451;49.060;10.616;2022-12-18T11:06:26;98030.81;;;-2.94;97.89
57628;BME280;43451;49.060;10.616;2022-12-18T11:09:00;98027.69;;;-3.21;98.92
57628;BME280;43451;49.060;10.616;2022-12-18T11:11:27;98031.44;;;-3.33;99.51
57628;BME280;43451;49.060;10.616;2022-12-18T11:14:12;98028.81;;;-3.53;100.00
57628;BME280;43451;49.060;10.616;2022-12-18T11:16:49;98023.25;;;-3.57;100.00
57628;BME280;43451;49.060;10.616;2022-12-18T11:19:32;98014.22;;;-3.45;100.00
57628;BME280;43451;49.060;10.616;2022-12-18T11:21:58;98028.25;;;-3.30;100.00
57628;BME280;43451;49.060;10.616;2022-12-18T11:24:35;98028.25;;;-3.35;100.00
57628;BME280;43451;49.060;10.616;2022-12-18T11:27:03;98024.81;;;-3.35;100.00
57628;BME280;43451;49.060;10.616;2022-12-18T11:29:38;98025.81;;;-3.21;100.00
57628;BME280;43451;49.060;10.616;2022-12-18T11:34:58;98022.66;;;-3.28;98.82
57628;BME280;43451;49.060;10.616;2022-12-18T11:37:25;98023.47;;;-3.43;100.00
57628;BME280;43451;49.060;10.616;2022-12-18T11:40:33;98022.69;;;-3.43;100.00
57628;BME280;43451;49.060;10.616;2022-12-18T11:43:15;98023.75;;;-3.44;100.00
57628;BME280;43451;49.060;10.616;2022-12-18T11:45:51;98013.94;;;-3.44;100.00
57628;BME280;43451;49.060;10.616;2022-12-18T11:48:22;98013.41;;;-3.51;100.00
57628;BME280;43451;49.060;10.616;2022-12-18T11:50:51;98008.63;;;-3.59;100.00
57628;BME280;43451;49.060;10.616;2022-12-18T11:53:18;98014.75;;;-3.48;100.00
57628;BME280;43451;49.060;10.616;2022-12-18T11:58:49;98001.94;;;-3.36;100.00
57628;BME280;43451;49.060;10.616;2022-12-18T12:07:23;97996.91;;;-3.38;100.00
57628;BME280;43451;49.060;10.616;2022-12-18T12:10:12;97988.44;;;-3.45;100.00
57628;BME280;43451;49.060;10.616;2022-12-18T12:12:50;97996.66;;;-3.46;100.00
57628;BME280;43451;49.060;10.616;2022-12-18T12:18:20;98001.69;;;-3.35;100.00
57628;BME280;43451;49.060;10.616;2022-12-18T12:23:56;97991.06;;;-3.30;100.00
57628;BME280;43451;49.060;10.616;2022-12-18T12:26:37;97988.38;;;-3.24;100.00
57628;BME280;43451;49.060;10.616;2022-12-18T12:35:03;97980.41;;;-3.24;99.17
57628;BME280;43451;49.060;10.616;2022-12-18T12:39:59;97980.41;;;-3.19;100.00
57628;BME280;43451;49.060;10.616;2022-12-18T12:48:23;97970.59;;;-3.29;99.93
57628;BME280;43451;49.060;10.616;2022-12-18T12:50:52;97983.63;;;-3.33;100.00
57628;BME280;43451;49.060;10.616;2022-12-18T12:53:26;97979.91;;;-3.27;100.00
57628;BME280;43451;49.060;10.616;2022-12-18T12:55:55;97981.47;;;-3.25;100.00
57628;BME280;43451;49.060;10.616;2022-12-18T13:01:27;97969.47;;;-3.13;100.00
57628;BME280;43451;49.060;10.616;2022-12-18T13:07:15;97956.00;;;-3.37;100.00
57628;BME280;43451;49.060;10.616;2022-12-18T13:13:11;97952.56;;;-3.47;100.00
57628;BME280;43451;49.060;10.616;2022-12-18T13:15:43;97951.75;;;-3.43;100.00
57628;BME280;43451;49.060;10.616;2022-12-18T13:20:41;97954.44;;;-3.48;100.00
57628;BME280;43451;49.060;10.616;2022-12-18T13:25:48;97943.25;;;-3.40;100.00
57628;BME280;43451;49.060;10.616;2022-12-18T13:28:21;97949.91;;;-3.47;100.00
57628;BME280;43451;49.060;10.616;2022-12-18T13:30:52;97956.31;;;-3.48;100.00
57628;BME280;43451;49.060;10.616;2022-12-18T13:38:41;97969.81;;;-3.30;100.00
57628;BME280;43451;49.060;10.616;2022-12-18T13:43:46;97974.59;;;-3.37;100.00
57628;BME280;43451;49.060;10.616;2022-12-18T13:46:47;97979.13;;;-3.53;100.00
57628;BME280;43451;49.060;10.616;2022-12-18T13:51:41;97975.19;;;-3.70;100.00
57628;BME280;43451;49.060;10.616;2022-12-18T13:54:34;97981.56;;;-3.92;100.00
57628;BME280;43451;49.060;10.616;2022-12-18T13:57:00;97970.44;;;-3.89;100.00
57628;BME280;43451;49.060;10.616;2022-12-18T14:02:07;97967.25;;;-3.96;100.00
57628;BME280;43451;49.060;10.616;2022-12-18T14:04:35;97961.66;;;-4.00;100.00
57628;BME280;43451;49.060;10.616;2022-12-18T14:07:22;97957.44;;;-4.06;100.00
57628;BME280;43451;49.060;10.616;2022-12-18T14:09:56;97955.31;;;-4.09;100.00
57628;BME280;43451;49.060;10.616;2022-12-18T14:12:25;97959.03;;;-4.15;100.00
57628;BME280;43451;49.060;10.616;2022-12-18T14:18:00;97952.66;;;-4.09;100.00
57628;BME280;43451;49.060;10.616;2022-12-18T14:20:27;97957.16;;;-4.30;100.00
57628;BME280;43451;49.060;10.616;2022-12-18T14:22:54;97953.97;;;-4.32;100.00
57628;BME280;43451;49.060;10.616;2022-12-18T14:25:25;97950.28;;;-4.31;100.00
57628;BME280;43451;49.060;10.616;2022-12-18T14:28:00;97952.91;;;-4.21;100.00
57628;BME280;43451;49.060;10.616;2022-12-18T14:30:30;97952.63;;;-4.19;100.00
57628;BME280;43451;49.060;10.616;2022-12-18T14:35:31;97943.38;;;-4.37;100.00
57628;BME280;43451;49.060;10.616;2022-12-18T14:40:41;97951.31;;;-4.27;100.00